Kaleen Mc Allister — WDB3847 — position and weather

sailwx.info

Track history (hours):
 
Tides and Currents Weather Stations Pressure Air Temp Water Temp Dewpoint Dewpoint Depression Visibility Wind Speed Wind Dir Waves Ship Positions

Kaleen Mc Allister

Owner: MC ALLISTER TOWING & TRANSPORTATION INC, NEW YORK, NY. More information available from US FCC via Universal Licensing System and Coast Guard Vessel Documentation Center.

Last reported at 2016-Feb-14 09:33 UTC. Time now 2016-Feb-14 10:09 UTC.
Position N 39°15' W 076°33'.

Length 20 m; draft 4 m.

Type: Towing. MMSI: 366891960.

Date/timePositionNaut miles runAvg speedWind from/ knotsBaromVisibWave heightAir tempDewpointWater temp
2016-Feb-14 09:33N 39°15' W 076°33'1 1.2
2016-Feb-14 08:34N 39°15' W 076°34'1 0.9
2016-Feb-14 07:33N 39°16' W 076°35'0 0.0
2016-Feb-14 06:33N 39°16' W 076°35'0 0.0
2016-Feb-14 05:33N 39°16' W 076°35'0 0.0
2016-Feb-14 04:33N 39°16' W 076°35'0 0.0
2016-Feb-14 03:33N 39°16' W 076°35'0 0.0
2016-Feb-14 02:33N 39°16' W 076°35'0 0.0
2016-Feb-14 01:33N 39°16' W 076°35'0 0.0
2016-Feb-14 00:33N 39°16' W 076°35'2 1.5
2016-Feb-13 23:33N 39°15' W 076°33'3 3.2
2016-Feb-13 22:33N 39°13' W 076°31'5 4.6
2016-Feb-13 21:33N 39°16' W 076°35'0 0.0
2016-Feb-13 20:33N 39°16' W 076°35'0 0.0
2016-Feb-13 19:33N 39°16' W 076°35'0 0.0
2016-Feb-13 18:33N 39°16' W 076°35'0 0.0
2016-Feb-13 17:33N 39°16' W 076°35'0 0.0
2016-Feb-13 16:33N 39°16' W 076°35'0 0.0
2016-Feb-13 15:33N 39°16' W 076°35'0 0.0
2016-Feb-13 14:33N 39°16' W 076°35'0 0.0
2016-Feb-13 13:33N 39°16' W 076°35'0 0.0
2016-Feb-13 12:33N 39°16' W 076°35'0 0.0
2016-Feb-13 11:33N 39°16' W 076°35'0 0.0
2016-Feb-13 10:33N 39°16' W 076°35'0 0.0
2016-Feb-13 09:33N 39°16' W 076°35'0 0.0
2016-Feb-13 08:33N 39°16' W 076°35'0 0.0
2016-Feb-13 07:33N 39°16' W 076°35'0 0.0
2016-Feb-13 06:33N 39°16' W 076°35'0 0.0
2016-Feb-13 05:33N 39°16' W 076°35'0 0.0
2016-Feb-13 04:33N 39°16' W 076°35'0 0.0
2016-Feb-13 03:33N 39°16' W 076°35'0 0.0
2016-Feb-13 02:33N 39°16' W 076°35'0 0.0
2016-Feb-13 01:33N 39°16' W 076°35'0 0.0
2016-Feb-13 00:33N 39°16' W 076°35'0 0.0
2016-Feb-12 23:33N 39°16' W 076°35'0 0.0
2016-Feb-12 22:33N 39°16' W 076°35'0 0.0
2016-Feb-12 21:33N 39°16' W 076°35'0 0.0
2016-Feb-12 20:33N 39°16' W 076°35'0 0.1
2016-Feb-12 19:34N 39°16' W 076°35'6 6.1
2016-Feb-12 18:33N 39°12' W 076°29'2 1.7
2016-Feb-12 17:33N 39°12' W 076°31'5 4.7
2016-Feb-12 16:33N 39°16' W 076°35'0 0.0
2016-Feb-12 15:33N 39°16' W 076°35'0 0.0
2016-Feb-12 14:33N 39°16' W 076°35'0 0.0
2016-Feb-12 13:33N 39°16' W 076°35'0 0.0
2016-Feb-12 12:33N 39°16' W 076°35'0 0.0
2016-Feb-12 11:33N 39°16' W 076°35'0 0.0
2016-Feb-12 10:33N 39°16' W 076°35'0 0.0
2016-Feb-12 09:33N 39°16' W 076°35'0 0.0
2016-Feb-12 08:33N 39°16' W 076°35'0 0.0
2016-Feb-12 07:34N 39°16' W 076°35'0 0.0
2016-Feb-12 06:33N 39°16' W 076°35'0 0.0
2016-Feb-12 05:33N 39°16' W 076°35'0 0.0
2016-Feb-12 04:33N 39°16' W 076°35'0 0.0
2016-Feb-12 03:33N 39°16' W 076°35'0 0.0
2016-Feb-12 02:33N 39°16' W 076°35'0 0.0
2016-Feb-12 01:33N 39°16' W 076°35'0 0.0
2016-Feb-12 00:33N 39°16' W 076°35'0 0.0
2016-Feb-11 23:33N 39°16' W 076°35'0 0.0
2016-Feb-11 22:33N 39°16' W 076°35'0 0.0
2016-Feb-11 21:33N 39°16' W 076°35'0 0.0
2016-Feb-11 20:33N 39°16' W 076°35'0 0.0
2016-Feb-11 19:33N 39°16' W 076°35'1 1.4
2016-Feb-11 18:31N 39°15' W 076°34'2 2.5
2016-Feb-11 17:33N 39°13' W 076°32'4 3.8
2016-Feb-11 16:33N 39°16' W 076°35'0 0.0
2016-Feb-11 15:33N 39°16' W 076°35'0 0.0
2016-Feb-11 14:33N 39°16' W 076°35'0 0.0
2016-Feb-11 13:33N 39°16' W 076°35'0 0.0
2016-Feb-11 12:33N 39°16' W 076°35'0 0.0
2016-Feb-11 11:33N 39°16' W 076°35'2 1.7
2016-Feb-11 10:33N 39°15' W 076°33'2 1.7
2016-Feb-11 09:33N 39°16' W 076°35'0 0.0
2016-Feb-11 08:34N 39°16' W 076°35'0 0.0
2016-Feb-11 07:33N 39°16' W 076°35'0 0.0
2016-Feb-11 06:33N 39°16' W 076°35'0 0.0
2016-Feb-11 05:33N 39°16' W 076°35'0 0.0
2016-Feb-11 04:33N 39°16' W 076°35'0 0.0
2016-Feb-11 03:33N 39°16' W 076°35'0 0.0
2016-Feb-11 02:33N 39°16' W 076°35'0 0.0
2016-Feb-11 01:33N 39°16' W 076°35'0 0.4
2016-Feb-11 00:33N 39°16' W 076°35'0 0.4
2016-Feb-10 23:33N 39°16' W 076°35'0 0.0
2016-Feb-10 22:33N 39°16' W 076°35'0 0.0
2016-Feb-10 21:33N 39°16' W 076°35'0 0.0
2016-Feb-10 20:33N 39°16' W 076°35'0 0.0
2016-Feb-10 19:33N 39°16' W 076°35'0 0.0
2016-Feb-10 18:33N 39°16' W 076°35'0 0.0
2016-Feb-10 17:33N 39°16' W 076°35'0 0.0
2016-Feb-10 16:33N 39°16' W 076°35'0 0.0
2016-Feb-10 15:34N 39°16' W 076°35'0 0.0
2016-Feb-10 14:33N 39°16' W 076°35'0 0.0
2016-Feb-10 13:33N 39°16' W 076°35'2 1.8
2016-Feb-10 12:33N 39°15' W 076°33'1 1.2
2016-Feb-10 11:33N 39°14' W 076°32'1 1.1
2016-Feb-10 10:31N 39°15' W 076°33'2 1.9
2016-Feb-10 09:33N 39°16' W 076°35'0 0.0
2016-Feb-10 08:33N 39°16' W 076°35'0 0.0
2016-Feb-10 07:33N 39°16' W 076°35'0 0.0
2016-Feb-10 06:33N 39°16' W 076°35'0 0.0
2016-Feb-10 05:33N 39°16' W 076°35'1 1.2
2016-Feb-10 04:33N 39°15' W 076°35'1 1.1
2016-Feb-10 03:33N 39°16' W 076°35'0 0.3
2016-Feb-10 02:33N 39°16' W 076°35'0 0.0
2016-Feb-10 01:33N 39°16' W 076°35'0 0.0
2016-Feb-10 00:33N 39°16' W 076°35'2 1.7
2016-Feb-09 23:33N 39°15' W 076°34'0 0.5
2016-Feb-09 22:33N 39°15' W 076°34'2 2.4
2016-Feb-09 21:33N 39°13' W 076°32'4 3.7
2016-Feb-09 20:33N 39°16' W 076°35'0 0.0
2016-Feb-09 19:33N 39°16' W 076°35'0 0.0
2016-Feb-09 18:33N 39°16' W 076°35'0 0.0
2016-Feb-09 17:33N 39°16' W 076°35'0 0.0
2016-Feb-09 16:15N 39°16' W 076°35'0 0.0
2016-Feb-09 15:30N 39°16' W 076°35'0 0.0
2016-Feb-09 14:30N 39°16' W 076°35'0 0.0
2016-Feb-09 13:25N 39°16' W 076°35'1 1.1
2016-Feb-09 12:31N 39°15' W 076°34'2 1.6
2016-Feb-09 11:33N 39°14' W 076°33'2 1.5
2016-Feb-09 10:32N 39°16' W 076°33'0 0.0
2016-Feb-09 09:33N 39°16' W 076°33'0 0.0
2016-Feb-09 08:33N 39°16' W 076°33'0 0.0
2016-Feb-09 07:33N 39°16' W 076°33'0 0.0
2016-Feb-09 06:33N 39°16' W 076°33'0 0.0
2016-Feb-09 05:33N 39°16' W 076°33'0 0.2
2016-Feb-09 04:32N 39°15' W 076°33'1 1.5
2016-Feb-09 03:33N 39°16' W 076°35'0 0.0
2016-Feb-09 02:33N 39°16' W 076°35'0 0.0
2016-Feb-09 01:33N 39°16' W 076°35'0 0.0
2016-Feb-09 00:33N 39°16' W 076°35'0 0.0
2016-Feb-08 23:33N 39°16' W 076°35'0 0.0
2016-Feb-08 22:33N 39°16' W 076°35'0 0.0
2016-Feb-08 21:33N 39°16' W 076°35'2 2.0
2016-Feb-08 20:33N 39°15' W 076°33'2 1.9
2016-Feb-08 19:33N 39°16' W 076°35'0 0.1
2016-Feb-08 18:33N 39°16' W 076°35'0 0.0
2016-Feb-08 17:33N 39°16' W 076°35'0 0.0
2016-Feb-08 16:33N 39°16' W 076°35'0 0.0
2016-Feb-08 15:33N 39°16' W 076°35'0 0.0
2016-Feb-08 14:33N 39°16' W 076°35'0 0.0
2016-Feb-08 13:33N 39°16' W 076°35'0 0.0
2016-Feb-08 12:33N 39°16' W 076°35'0 0.0
2016-Feb-08 11:33N 39°16' W 076°35'0 0.0
2016-Feb-08 10:33N 39°16' W 076°35'0 0.0
2016-Feb-08 09:33N 39°16' W 076°35'2 1.7
2016-Feb-08 08:33N 39°15' W 076°33'2 2.3
2016-Feb-08 07:33N 39°13' W 076°32'4 3.8
2016-Feb-08 06:33N 39°16' W 076°35'0 0.0
2016-Feb-08 05:34N 39°16' W 076°35'0 0.0
2016-Feb-08 04:33N 39°16' W 076°35'0 0.0
2016-Feb-08 03:33N 39°16' W 076°35'0 0.0
2016-Feb-08 02:33N 39°16' W 076°35'0 0.0
2016-Feb-08 01:33N 39°16' W 076°35'0 0.0
2016-Feb-08 00:33N 39°16' W 076°35'0 0.0
2016-Feb-07 23:33N 39°16' W 076°35'0 0.0
2016-Feb-07 22:33N 39°16' W 076°35'0 0.0
2016-Feb-07 21:33N 39°16' W 076°35'0 0.0
2016-Feb-07 20:33N 39°16' W 076°35'0 0.0
2016-Feb-07 19:33N 39°16' W 076°35'0 0.0
2016-Feb-07 18:33N 39°16' W 076°35'0 0.0
2016-Feb-07 17:33N 39°16' W 076°35'0 0.0
2016-Feb-07 16:33N 39°16' W 076°35'0 0.0
2016-Feb-07 15:33N 39°16' W 076°35'0 0.0
2016-Feb-07 14:33N 39°16' W 076°35'0 0.0
2016-Feb-07 13:33N 39°16' W 076°35'0 0.0
2016-Feb-07 12:33N 39°16' W 076°35'0 0.0
2016-Feb-07 11:33N 39°16' W 076°35'0 0.0
2016-Feb-07 10:33N 39°16' W 076°35'0 0.0
2016-Feb-07 09:33N 39°16' W 076°35'0 0.0
2016-Feb-07 08:33N 39°16' W 076°35'0 0.4
2016-Feb-07 07:33N 39°16' W 076°34'0 0.0
2016-Feb-07 06:33N 39°16' W 076°34'0 0.4
2016-Feb-07 05:33N 39°16' W 076°35'0 0.0
2016-Feb-07 04:33N 39°16' W 076°35'0 0.0
2016-Feb-07 03:33N 39°16' W 076°35'0 0.0
2016-Feb-07 02:33N 39°16' W 076°35'0 0.0
2016-Feb-07 01:33N 39°16' W 076°35'0 0.0
2016-Feb-07 00:33N 39°16' W 076°35'0 0.0
2016-Feb-06 23:34N 39°16' W 076°35'0 0.0
2016-Feb-06 22:33N 39°16' W 076°35'0 0.0
2016-Feb-06 21:33N 39°16' W 076°35'0 0.0
2016-Feb-06 20:33N 39°16' W 076°35'0 0.0
2016-Feb-06 19:33N 39°16' W 076°35'0 0.0
2016-Feb-06 18:33N 39°16' W 076°35'0 0.0
2016-Feb-06 17:33N 39°16' W 076°35'0 0.0
2016-Feb-06 16:33N 39°16' W 076°35'0 0.0
2016-Feb-06 15:33N 39°16' W 076°35'0 0.0
2016-Feb-06 14:33N 39°16' W 076°35'0 0.0
2016-Feb-06 13:33N 39°16' W 076°35'0 0.0
2016-Feb-06 12:33N 39°16' W 076°35'0 0.0
2016-Feb-06 11:33N 39°16' W 076°35'0 0.0
2016-Feb-06 10:33N 39°16' W 076°35'0 0.0
2016-Feb-06 09:33N 39°16' W 076°35'0 0.0
2016-Feb-06 08:33N 39°16' W 076°35'0 0.0
2016-Feb-06 07:33N 39°16' W 076°35'0 0.0
2016-Feb-06 06:33N 39°16' W 076°35'0 0.0
2016-Feb-06 05:33N 39°16' W 076°35'0 0.0
2016-Feb-06 04:33N 39°16' W 076°35'0 0.0
2016-Feb-06 03:33N 39°16' W 076°35'0 0.0
2016-Feb-06 02:33N 39°16' W 076°35'0 0.0
2016-Feb-06 01:33N 39°16' W 076°35'1 0.6
2016-Feb-06 00:33N 39°16' W 076°34'1 1.5
2016-Feb-05 23:33N 39°15' W 076°33'2 1.9
2016-Feb-05 22:33N 39°16' W 076°35'0 0.2
2016-Feb-05 21:33N 39°16' W 076°35'0 0.0
2016-Feb-05 20:33N 39°16' W 076°35'3 2.6
2016-Feb-05 19:26N 39°13' W 076°34'2 2.0
2016-Feb-05 18:33N 39°15' W 076°34'1 1.4
2016-Feb-05 17:33N 39°16' W 076°35'0 0.0
2016-Feb-05 16:33N 39°16' W 076°35'0 0.0
2016-Feb-05 15:33N 39°16' W 076°35'0 0.0
2016-Feb-05 14:33N 39°16' W 076°35'0 0.0
2016-Feb-05 13:33N 39°16' W 076°35'0 0.0
2016-Feb-05 12:33N 39°16' W 076°35'0 0.0
2016-Feb-05 11:33N 39°16' W 076°35'3 2.5
2016-Feb-05 10:33N 39°15' W 076°32'0 0.3
2016-Feb-05 09:33N 39°14' W 076°32'0 0.0
2016-Feb-05 08:34N 39°14' W 076°32'0 0.0
2016-Feb-05 07:34N 39°14' W 076°32'0 0.0
2016-Feb-05 06:33N 39°14' W 076°32'0 0.0
2016-Feb-05 05:33N 39°14' W 076°32'3 2.9
2016-Feb-05 04:33N 39°16' W 076°35'0 0.0
2016-Feb-05 03:33N 39°16' W 076°35'0 0.0
2016-Feb-05 02:33N 39°16' W 076°35'0 0.0
2016-Feb-05 01:33N 39°16' W 076°35'0 0.3
2016-Feb-05 00:33N 39°16' W 076°34'2 2.0
2016-Feb-04 23:33N 39°15' W 076°33'2 2.1
2016-Feb-04 22:33N 39°16' W 076°35'0 0.1
2016-Feb-04 21:33N 39°16' W 076°35'0 0.0
2016-Feb-04 20:33N 39°16' W 076°35'1 1.2
2016-Feb-04 19:33N 39°15' W 076°35'2 2.3
2016-Feb-04 18:33N 39°14' W 076°32'3 3.2
2016-Feb-04 17:33N 39°16' W 076°35'0 0.0
2016-Feb-04 16:33N 39°16' W 076°35'0 0.0
2016-Feb-04 15:33N 39°16' W 076°35'0 0.0
2016-Feb-04 14:33N 39°16' W 076°35'0 0.0
2016-Feb-04 13:33N 39°16' W 076°35'0 0.0
2016-Feb-04 12:33N 39°16' W 076°35'1 0.5
2016-Feb-04 11:33N 39°16' W 076°34'2 2.5
2016-Feb-04 10:33N 39°14' W 076°33'  
Track history (hours):
 
Tides and Currents Weather Stations Pressure Air Temp Water Temp Dewpoint Dewpoint Depression Visibility Wind Speed Wind Dir Waves Ship Positions

Kaleen Mc Allister

Owner: MC ALLISTER TOWING & TRANSPORTATION INC, NEW YORK, NY. More information available from US FCC via Universal Licensing System and Coast Guard Vessel Documentation Center.

Last reported at 2016-Feb-14 09:33 UTC. Time now 2016-Feb-14 10:09 UTC.
Position N 39°15' W 076°33'.

Length 20 m; draft 4 m.

Type: Towing. MMSI: 366891960.

Date/timePositionNaut miles runAvg speedWind from/ knotsBaromVisibWave heightAir tempDewpointWater temp
2016-Feb-14 09:33N 39°15' W 076°33'1 1.2
2016-Feb-14 08:34N 39°15' W 076°34'1 0.9
2016-Feb-14 07:33N 39°16' W 076°35'0 0.0
2016-Feb-14 06:33N 39°16' W 076°35'0 0.0
2016-Feb-14 05:33N 39°16' W 076°35'0 0.0
2016-Feb-14 04:33N 39°16' W 076°35'0 0.0
2016-Feb-14 03:33N 39°16' W 076°35'0 0.0
2016-Feb-14 02:33N 39°16' W 076°35'0 0.0
2016-Feb-14 01:33N 39°16' W 076°35'0 0.0
2016-Feb-14 00:33N 39°16' W 076°35'2 1.5
2016-Feb-13 23:33N 39°15' W 076°33'3 3.2
2016-Feb-13 22:33N 39°13' W 076°31'5 4.6
2016-Feb-13 21:33N 39°16' W 076°35'0 0.0
2016-Feb-13 20:33N 39°16' W 076°35'0 0.0
2016-Feb-13 19:33N 39°16' W 076°35'0 0.0
2016-Feb-13 18:33N 39°16' W 076°35'0 0.0
2016-Feb-13 17:33N 39°16' W 076°35'0 0.0
2016-Feb-13 16:33N 39°16' W 076°35'0 0.0
2016-Feb-13 15:33N 39°16' W 076°35'0 0.0
2016-Feb-13 14:33N 39°16' W 076°35'0 0.0
2016-Feb-13 13:33N 39°16' W 076°35'0 0.0
2016-Feb-13 12:33N 39°16' W 076°35'0 0.0
2016-Feb-13 11:33N 39°16' W 076°35'0 0.0
2016-Feb-13 10:33N 39°16' W 076°35'0 0.0
2016-Feb-13 09:33N 39°16' W 076°35'0 0.0
2016-Feb-13 08:33N 39°16' W 076°35'0 0.0
2016-Feb-13 07:33N 39°16' W 076°35'0 0.0
2016-Feb-13 06:33N 39°16' W 076°35'0 0.0
2016-Feb-13 05:33N 39°16' W 076°35'0 0.0
2016-Feb-13 04:33N 39°16' W 076°35'0 0.0
2016-Feb-13 03:33N 39°16' W 076°35'0 0.0
2016-Feb-13 02:33N 39°16' W 076°35'0 0.0
2016-Feb-13 01:33N 39°16' W 076°35'0 0.0
2016-Feb-13 00:33N 39°16' W 076°35'0 0.0
2016-Feb-12 23:33N 39°16' W 076°35'0 0.0
2016-Feb-12 22:33N 39°16' W 076°35'0 0.0
2016-Feb-12 21:33N 39°16' W 076°35'0 0.0
2016-Feb-12 20:33N 39°16' W 076°35'0 0.1
2016-Feb-12 19:34N 39°16' W 076°35'6 6.1
2016-Feb-12 18:33N 39°12' W 076°29'2 1.7
2016-Feb-12 17:33N 39°12' W 076°31'5 4.7
2016-Feb-12 16:33N 39°16' W 076°35'0 0.0
2016-Feb-12 15:33N 39°16' W 076°35'0 0.0
2016-Feb-12 14:33N 39°16' W 076°35'0 0.0
2016-Feb-12 13:33N 39°16' W 076°35'0 0.0
2016-Feb-12 12:33N 39°16' W 076°35'0 0.0
2016-Feb-12 11:33N 39°16' W 076°35'0 0.0
2016-Feb-12 10:33N 39°16' W 076°35'0 0.0
2016-Feb-12 09:33N 39°16' W 076°35'0 0.0
2016-Feb-12 08:33N 39°16' W 076°35'0 0.0
2016-Feb-12 07:34N 39°16' W 076°35'0 0.0
2016-Feb-12 06:33N 39°16' W 076°35'0 0.0
2016-Feb-12 05:33N 39°16' W 076°35'0 0.0
2016-Feb-12 04:33N 39°16' W 076°35'0 0.0
2016-Feb-12 03:33N 39°16' W 076°35'0 0.0
2016-Feb-12 02:33N 39°16' W 076°35'0 0.0
2016-Feb-12 01:33N 39°16' W 076°35'0 0.0
2016-Feb-12 00:33N 39°16' W 076°35'0 0.0
2016-Feb-11 23:33N 39°16' W 076°35'0 0.0
2016-Feb-11 22:33N 39°16' W 076°35'0 0.0
2016-Feb-11 21:33N 39°16' W 076°35'0 0.0
2016-Feb-11 20:33N 39°16' W 076°35'0 0.0
2016-Feb-11 19:33N 39°16' W 076°35'1 1.4
2016-Feb-11 18:31N 39°15' W 076°34'2 2.5
2016-Feb-11 17:33N 39°13' W 076°32'4 3.8
2016-Feb-11 16:33N 39°16' W 076°35'0 0.0
2016-Feb-11 15:33N 39°16' W 076°35'0 0.0
2016-Feb-11 14:33N 39°16' W 076°35'0 0.0
2016-Feb-11 13:33N 39°16' W 076°35'0 0.0
2016-Feb-11 12:33N 39°16' W 076°35'0 0.0
2016-Feb-11 11:33N 39°16' W 076°35'2 1.7
2016-Feb-11 10:33N 39°15' W 076°33'2 1.7
2016-Feb-11 09:33N 39°16' W 076°35'0 0.0
2016-Feb-11 08:34N 39°16' W 076°35'0 0.0
2016-Feb-11 07:33N 39°16' W 076°35'0 0.0
2016-Feb-11 06:33N 39°16' W 076°35'0 0.0
2016-Feb-11 05:33N 39°16' W 076°35'0 0.0
2016-Feb-11 04:33N 39°16' W 076°35'0 0.0
2016-Feb-11 03:33N 39°16' W 076°35'0 0.0
2016-Feb-11 02:33N 39°16' W 076°35'0 0.0
2016-Feb-11 01:33N 39°16' W 076°35'0 0.4
2016-Feb-11 00:33N 39°16' W 076°35'0 0.4
2016-Feb-10 23:33N 39°16' W 076°35'0 0.0
2016-Feb-10 22:33N 39°16' W 076°35'0 0.0
2016-Feb-10 21:33N 39°16' W 076°35'0 0.0
2016-Feb-10 20:33N 39°16' W 076°35'0 0.0
2016-Feb-10 19:33N 39°16' W 076°35'0 0.0
2016-Feb-10 18:33N 39°16' W 076°35'0 0.0
2016-Feb-10 17:33N 39°16' W 076°35'0 0.0
2016-Feb-10 16:33N 39°16' W 076°35'0 0.0
2016-Feb-10 15:34N 39°16' W 076°35'0 0.0
2016-Feb-10 14:33N 39°16' W 076°35'0 0.0
2016-Feb-10 13:33N 39°16' W 076°35'2 1.8
2016-Feb-10 12:33N 39°15' W 076°33'1 1.2
2016-Feb-10 11:33N 39°14' W 076°32'1 1.1
2016-Feb-10 10:31N 39°15' W 076°33'2 1.9
2016-Feb-10 09:33N 39°16' W 076°35'0 0.0
2016-Feb-10 08:33N 39°16' W 076°35'0 0.0
2016-Feb-10 07:33N 39°16' W 076°35'0 0.0
2016-Feb-10 06:33N 39°16' W 076°35'0 0.0
2016-Feb-10 05:33N 39°16' W 076°35'1 1.2
2016-Feb-10 04:33N 39°15' W 076°35'1 1.1
2016-Feb-10 03:33N 39°16' W 076°35'0 0.3
2016-Feb-10 02:33N 39°16' W 076°35'0 0.0
2016-Feb-10 01:33N 39°16' W 076°35'0 0.0
2016-Feb-10 00:33N 39°16' W 076°35'2 1.7
2016-Feb-09 23:33N 39°15' W 076°34'0 0.5
2016-Feb-09 22:33N 39°15' W 076°34'2 2.4
2016-Feb-09 21:33N 39°13' W 076°32'4 3.7
2016-Feb-09 20:33N 39°16' W 076°35'0 0.0
2016-Feb-09 19:33N 39°16' W 076°35'0 0.0
2016-Feb-09 18:33N 39°16' W 076°35'0 0.0
2016-Feb-09 17:33N 39°16' W 076°35'0 0.0
2016-Feb-09 16:15N 39°16' W 076°35'0 0.0
2016-Feb-09 15:30N 39°16' W 076°35'0 0.0
2016-Feb-09 14:30N 39°16' W 076°35'0 0.0
2016-Feb-09 13:25N 39°16' W 076°35'1 1.1
2016-Feb-09 12:31N 39°15' W 076°34'2 1.6
2016-Feb-09 11:33N 39°14' W 076°33'2 1.5
2016-Feb-09 10:32N 39°16' W 076°33'0 0.0
2016-Feb-09 09:33N 39°16' W 076°33'0 0.0
2016-Feb-09 08:33N 39°16' W 076°33'0 0.0
2016-Feb-09 07:33N 39°16' W 076°33'0 0.0
2016-Feb-09 06:33N 39°16' W 076°33'0 0.0
2016-Feb-09 05:33N 39°16' W 076°33'0 0.2
2016-Feb-09 04:32N 39°15' W 076°33'1 1.5
2016-Feb-09 03:33N 39°16' W 076°35'0 0.0
2016-Feb-09 02:33N 39°16' W 076°35'0 0.0
2016-Feb-09 01:33N 39°16' W 076°35'0 0.0
2016-Feb-09 00:33N 39°16' W 076°35'0 0.0
2016-Feb-08 23:33N 39°16' W 076°35'0 0.0
2016-Feb-08 22:33N 39°16' W 076°35'0 0.0
2016-Feb-08 21:33N 39°16' W 076°35'2 2.0
2016-Feb-08 20:33N 39°15' W 076°33'2 1.9
2016-Feb-08 19:33N 39°16' W 076°35'0 0.1
2016-Feb-08 18:33N 39°16' W 076°35'0 0.0
2016-Feb-08 17:33N 39°16' W 076°35'0 0.0
2016-Feb-08 16:33N 39°16' W 076°35'0 0.0
2016-Feb-08 15:33N 39°16' W 076°35'0 0.0
2016-Feb-08 14:33N 39°16' W 076°35'0 0.0
2016-Feb-08 13:33N 39°16' W 076°35'0 0.0
2016-Feb-08 12:33N 39°16' W 076°35'0 0.0
2016-Feb-08 11:33N 39°16' W 076°35'0 0.0
2016-Feb-08 10:33N 39°16' W 076°35'0 0.0
2016-Feb-08 09:33N 39°16' W 076°35'2 1.7
2016-Feb-08 08:33N 39°15' W 076°33'2 2.3
2016-Feb-08 07:33N 39°13' W 076°32'4 3.8
2016-Feb-08 06:33N 39°16' W 076°35'0 0.0
2016-Feb-08 05:34N 39°16' W 076°35'0 0.0
2016-Feb-08 04:33N 39°16' W 076°35'0 0.0
2016-Feb-08 03:33N 39°16' W 076°35'0 0.0
2016-Feb-08 02:33N 39°16' W 076°35'0 0.0
2016-Feb-08 01:33N 39°16' W 076°35'0 0.0
2016-Feb-08 00:33N 39°16' W 076°35'0 0.0
2016-Feb-07 23:33N 39°16' W 076°35'0 0.0
2016-Feb-07 22:33N 39°16' W 076°35'0 0.0
2016-Feb-07 21:33N 39°16' W 076°35'0 0.0
2016-Feb-07 20:33N 39°16' W 076°35'0 0.0
2016-Feb-07 19:33N 39°16' W 076°35'0 0.0
2016-Feb-07 18:33N 39°16' W 076°35'0 0.0
2016-Feb-07 17:33N 39°16' W 076°35'0 0.0
2016-Feb-07 16:33N 39°16' W 076°35'0 0.0
2016-Feb-07 15:33N 39°16' W 076°35'0 0.0
2016-Feb-07 14:33N 39°16' W 076°35'0 0.0
2016-Feb-07 13:33N 39°16' W 076°35'0 0.0
2016-Feb-07 12:33N 39°16' W 076°35'0 0.0
2016-Feb-07 11:33N 39°16' W 076°35'0 0.0
2016-Feb-07 10:33N 39°16' W 076°35'0 0.0
2016-Feb-07 09:33N 39°16' W 076°35'0 0.0
2016-Feb-07 08:33N 39°16' W 076°35'0 0.4
2016-Feb-07 07:33N 39°16' W 076°34'0 0.0
2016-Feb-07 06:33N 39°16' W 076°34'0 0.4
2016-Feb-07 05:33N 39°16' W 076°35'0 0.0
2016-Feb-07 04:33N 39°16' W 076°35'0 0.0
2016-Feb-07 03:33N 39°16' W 076°35'0 0.0
2016-Feb-07 02:33N 39°16' W 076°35'0 0.0
2016-Feb-07 01:33N 39°16' W 076°35'0 0.0
2016-Feb-07 00:33N 39°16' W 076°35'0 0.0
2016-Feb-06 23:34N 39°16' W 076°35'0 0.0
2016-Feb-06 22:33N 39°16' W 076°35'0 0.0
2016-Feb-06 21:33N 39°16' W 076°35'0 0.0
2016-Feb-06 20:33N 39°16' W 076°35'0 0.0
2016-Feb-06 19:33N 39°16' W 076°35'0 0.0
2016-Feb-06 18:33N 39°16' W 076°35'0 0.0
2016-Feb-06 17:33N 39°16' W 076°35'0 0.0
2016-Feb-06 16:33N 39°16' W 076°35'0 0.0
2016-Feb-06 15:33N 39°16' W 076°35'0 0.0
2016-Feb-06 14:33N 39°16' W 076°35'0 0.0
2016-Feb-06 13:33N 39°16' W 076°35'0 0.0
2016-Feb-06 12:33N 39°16' W 076°35'0 0.0
2016-Feb-06 11:33N 39°16' W 076°35'0 0.0
2016-Feb-06 10:33N 39°16' W 076°35'0 0.0
2016-Feb-06 09:33N 39°16' W 076°35'0 0.0
2016-Feb-06 08:33N 39°16' W 076°35'0 0.0
2016-Feb-06 07:33N 39°16' W 076°35'0 0.0
2016-Feb-06 06:33N 39°16' W 076°35'0 0.0
2016-Feb-06 05:33N 39°16' W 076°35'0 0.0
2016-Feb-06 04:33N 39°16' W 076°35'0 0.0
2016-Feb-06 03:33N 39°16' W 076°35'0 0.0
2016-Feb-06 02:33N 39°16' W 076°35'0 0.0
2016-Feb-06 01:33N 39°16' W 076°35'1 0.6
2016-Feb-06 00:33N 39°16' W 076°34'1 1.5
2016-Feb-05 23:33N 39°15' W 076°33'2 1.9
2016-Feb-05 22:33N 39°16' W 076°35'0 0.2
2016-Feb-05 21:33N 39°16' W 076°35'0 0.0
2016-Feb-05 20:33N 39°16' W 076°35'3 2.6
2016-Feb-05 19:26N 39°13' W 076°34'2 2.0
2016-Feb-05 18:33N 39°15' W 076°34'1 1.4
2016-Feb-05 17:33N 39°16' W 076°35'0 0.0
2016-Feb-05 16:33N 39°16' W 076°35'0 0.0
2016-Feb-05 15:33N 39°16' W 076°35'0 0.0
2016-Feb-05 14:33N 39°16' W 076°35'0 0.0
2016-Feb-05 13:33N 39°16' W 076°35'0 0.0
2016-Feb-05 12:33N 39°16' W 076°35'0 0.0
2016-Feb-05 11:33N 39°16' W 076°35'3 2.5
2016-Feb-05 10:33N 39°15' W 076°32'0 0.3
2016-Feb-05 09:33N 39°14' W 076°32'0 0.0
2016-Feb-05 08:34N 39°14' W 076°32'0 0.0
2016-Feb-05 07:34N 39°14' W 076°32'0 0.0
2016-Feb-05 06:33N 39°14' W 076°32'0 0.0
2016-Feb-05 05:33N 39°14' W 076°32'3 2.9
2016-Feb-05 04:33N 39°16' W 076°35'0 0.0
2016-Feb-05 03:33N 39°16' W 076°35'0 0.0
2016-Feb-05 02:33N 39°16' W 076°35'0 0.0
2016-Feb-05 01:33N 39°16' W 076°35'0 0.3
2016-Feb-05 00:33N 39°16' W 076°34'2 2.0
2016-Feb-04 23:33N 39°15' W 076°33'2 2.1
2016-Feb-04 22:33N 39°16' W 076°35'0 0.1
2016-Feb-04 21:33N 39°16' W 076°35'0 0.0
2016-Feb-04 20:33N 39°16' W 076°35'1 1.2
2016-Feb-04 19:33N 39°15' W 076°35'2 2.3
2016-Feb-04 18:33N 39°14' W 076°32'3 3.2
2016-Feb-04 17:33N 39°16' W 076°35'0 0.0
2016-Feb-04 16:33N 39°16' W 076°35'0 0.0
2016-Feb-04 15:33N 39°16' W 076°35'0 0.0
2016-Feb-04 14:33N 39°16' W 076°35'0 0.0
2016-Feb-04 13:33N 39°16' W 076°35'0 0.0
2016-Feb-04 12:33N 39°16' W 076°35'1 0.5
2016-Feb-04 11:33N 39°16' W 076°34'2 2.5
2016-Feb-04 10:33N 39°14' W 076°33'  

Dump ship's entire track history